Aérodrome :
LOGIN :

S'inscrire | Disclaimer

   EN    FR    IT 

 










Légende :    VFR   VFR Marginal   IFR   IFR Intensif   IFR Très Intensif
Visi : 
Plafond : 
>= 8 km
>= 3000ft
5 à 8 km
1000 à 3000 ft
1500m à 5 km
500 à 1000 ft
800 à 1500m
200 à 500 ft
< 800m
< 200 ft
Symboles :   Orages  Brouillard  Fortes neiges  Fortes précipitations  Vent > 20 kt
SIGMETs :   Divers  Orages  Givrage  Turbulence  Onde Orograph.  Cendres Volcan.







- Altitude de l'aérodrome : 1411 ft
- Code IATA : SZG


LOWS - Salzburg

DERNIER METAR :
  • 240650Z 29004KT 260V330 9999 -SHRA FEW015 SCT023 BKN035 08/06 Q1029 RERA TEMPO SHRA

METARs EXPIRÉS :
  • 240620Z 30007KT 9999 VCSH FEW015 SCT023 BKN035 08/05 Q1028 TEMPO SHRA
  • 240550Z 32010KT 9999 -RA FEW012 SCT020 BKN035 08/05 Q1027 NOSIG
  • 240520Z 31010KT 9999 -SHRA FEW012 SCT020 BKN030 08/06 Q1027 RERA TEMPO SHRA
  • 240450Z 31009KT 9999 -SHRA FEW012 SCT020 BKN035 09/06 Q1026 TEMPO SHRA
  • 240420Z 28008KT 240V310 9999 -SHRA FEW015 SCT023 BKN038 09/06 Q1025 TEMPO SHRA

TAF TAF LOWS
Valide du 24 à 06h jusqu'au 25 à 06h UTC


240515Z 2406/2506 28009KT 9999 SCT030 BKN050 TX14/2413Z TN06/2504Z
TEMPO 2406/2412 31015G25KT -SHRA BKN040
PROB30
TEMPO 2406/2408 6000 SHRA FEW012 BKN025
TEMPO 2412/2415 31015G25KT
BECMG 2415/2417 23006KT SCT050 BKN120
TEMPO 2500/2506 29009KT RA BKN050
Pas de NOTAMs connus pour ce terrain.
3 SIGMETs publiés pour la FIR Wien (LOVV) :
 
Turbulence forte
LOVV SIGMET 6 VALID 240615/240830 LOWW
LOVV WIEN FIR SEV TURB FCST SW OF LINE N4705 E00915 - N4725 E01500 - N4625 E01525 SFC/FL140 STNR NC=
Annulation du SIGMET 4 
LOVV SIGMET 5 VALID 240612/240830 LOWW
LOVV WIEN FIR CNL SIGMET 4 240600/240830=
SIGMET 4  ANNULÉ :
Turbulence forte
LOVV SIGMET 4 VALID 240600/240830 LOWW
LOVV WIEN FIR SEV TURB FCST SE OF LINE N4640 E01545 - N4735 E01510 - N4700 E00925 SFC/FL140 STNR NC=



MET'MAP, la Météo Aéronautique d'un coup d'oeil ! - Copyright ORBIFLY Décembre 2007 - Disclaimer

ORBIFLY MET'MAP TEAM :

Programmation & Développement : Alexandra Zaïnal
Conception & Développement : Baudouin d'Aumeries
Co-Programmation & Développement : Marc-Olivier Méhu
Soutien technique & logistique : Manuel Goepfert

Contact : metmap@orbifly.com




SOURCES & CREDITS :

   NOAA